createdAt,value
2018-09-17T00:04:32.336Z,13.70
2018-09-17T00:09:27.092Z,13.70
2018-09-17T00:14:21.630Z,13.60
2018-09-17T00:19:16.120Z,13.60
2018-09-17T00:24:10.840Z,13.50
2018-09-17T00:29:05.438Z,13.40
2018-09-17T00:33:59.914Z,13.40
2018-09-17T00:38:54.697Z,13.30
2018-09-17T00:43:49.222Z,13.30
2018-09-17T00:48:43.828Z,13.20
2018-09-17T00:53:38.377Z,13.10
2018-09-17T00:58:32.845Z,13.20
2018-09-17T01:03:27.516Z,13.20
2018-09-17T01:08:21.974Z,13.10
2018-09-17T01:13:16.586Z,13.00
2018-09-17T01:18:11.034Z,12.90
2018-09-17T01:23:05.674Z,12.80
2018-09-17T01:28:00.469Z,12.70
2018-09-17T01:32:55.007Z,12.70
2018-09-17T01:37:49.482Z,12.70
2018-09-17T01:42:44.090Z,12.70
2018-09-17T01:47:38.681Z,12.70
2018-09-17T01:52:33.173Z,12.60
2018-09-17T01:57:27.863Z,12.60
2018-09-17T02:02:22.324Z,12.60
2018-09-17T02:07:16.810Z,12.60
2018-09-17T02:12:13.501Z,12.50
2018-09-17T02:17:08.136Z,12.50
2018-09-17T02:22:02.620Z,12.50
2018-09-17T02:26:57.467Z,12.50
2018-09-17T02:31:51.942Z,12.40
2018-09-17T02:36:46.622Z,12.40
2018-09-17T02:41:41.153Z,12.30
2018-09-17T02:46:35.647Z,12.30
2018-09-17T02:51:30.123Z,12.20
2018-09-17T02:56:25.099Z,12.20
2018-09-17T03:01:19.572Z,12.20
2018-09-17T03:06:14.071Z,12.20
2018-09-17T03:11:08.708Z,12.20
2018-09-17T03:16:03.220Z,12.30
2018-09-17T03:20:57.695Z,12.40
2018-09-17T03:25:52.275Z,12.40
2018-09-17T03:30:46.798Z,12.40
2018-09-17T03:35:41.623Z,12.40
2018-09-17T03:40:36.296Z,12.40
2018-09-17T03:45:30.838Z,12.40
2018-09-17T03:50:25.306Z,12.40
2018-09-17T03:55:19.974Z,12.30
2018-09-17T04:00:14.458Z,12.30
2018-09-17T04:05:08.928Z,12.20
2018-09-17T04:10:03.517Z,12.20
2018-09-17T04:14:57.996Z,12.10
2018-09-17T04:19:52.476Z,12.00
2018-09-17T04:24:47.163Z,12.00
2018-09-17T04:29:41.632Z,12.00
2018-09-17T04:34:36.106Z,12.00
2018-09-17T04:39:30.854Z,12.10
2018-09-17T04:44:25.371Z,12.10
2018-09-17T04:49:19.847Z,12.10
2018-09-17T04:54:14.335Z,12.10
2018-09-17T04:59:08.770Z,12.10
2018-09-17T05:04:03.292Z,12.10
2018-09-17T05:08:57.774Z,12.10
2018-09-17T05:13:52.247Z,12.10
2018-09-17T05:18:46.750Z,12.20
2018-09-17T05:23:41.509Z,12.20
2018-09-17T05:28:36.008Z,12.30
2018-09-17T05:33:30.516Z,12.40
2018-09-17T05:38:24.977Z,12.50
2018-09-17T05:43:19.514Z,12.60
2018-09-17T05:48:14.096Z,12.70
2018-09-17T05:53:08.832Z,12.80
2018-09-17T05:58:03.481Z,12.90
2018-09-17T06:02:59.045Z,13.00
2018-09-17T06:07:53.739Z,13.10
2018-09-17T06:12:49.030Z,13.30
2018-09-17T06:17:43.514Z,13.50
2018-09-17T06:22:38.071Z,13.70
2018-09-17T06:27:32.825Z,13.90
2018-09-17T06:32:27.294Z,14.40
2018-09-17T06:37:21.772Z,16.10
2018-09-17T06:42:16.668Z,18.90
2018-09-17T06:47:11.289Z,21.90
2018-09-17T06:52:06.016Z,25.20
2018-09-17T06:57:00.522Z,27.30
2018-09-17T07:01:54.992Z,29.20
2018-09-17T07:06:50.039Z,31.50
2018-09-17T07:11:44.866Z,33.50
2018-09-17T07:16:39.792Z,34.80
2018-09-17T07:21:34.796Z,36.10
2018-09-17T07:26:29.707Z,37.00
2018-09-17T07:31:24.653Z,38.00
2018-09-17T07:36:19.533Z,38.30
2018-09-17T07:41:14.427Z,39.60
2018-09-17T07:46:09.374Z,39.90
2018-09-17T07:51:04.110Z,40.80
2018-09-17T07:55:59.237Z,40.40
2018-09-17T08:00:54.497Z,40.90
2018-09-17T08:05:49.702Z,41.00
2018-09-17T08:10:44.803Z,42.20
2018-09-17T08:15:39.558Z,41.40
2018-09-17T08:20:34.290Z,41.20
2018-09-17T08:25:29.097Z,41.70
2018-09-17T08:30:24.091Z,44.00
2018-09-17T08:35:18.991Z,45.60
2018-09-17T08:40:14.211Z,46.20
2018-09-17T08:45:08.972Z,46.70
2018-09-17T08:50:03.798Z,46.60
2018-09-17T08:55:10.066Z,46.20
2018-09-17T09:00:13.000Z,46.10
2018-09-17T09:05:13.073Z,46.40
2018-09-17T09:10:13.176Z,47.00
2018-09-17T09:15:13.135Z,46.80
2018-09-17T09:20:07.935Z,46.30
2018-09-17T09:25:02.909Z,46.40
2018-09-17T09:29:57.749Z,46.20
2018-09-17T09:34:53.114Z,46.10
2018-09-17T09:39:47.818Z,45.60
2018-09-17T09:44:42.748Z,44.80
2018-09-17T09:49:37.508Z,41.60
2018-09-17T09:54:32.402Z,36.80
2018-09-17T09:59:27.211Z,34.00
2018-09-17T10:04:22.984Z,31.20
2018-09-17T10:09:22.923Z,29.30
2018-09-17T10:14:22.826Z,28.20
2018-09-17T10:19:23.261Z,27.40
2018-09-17T10:24:18.146Z,26.60
2018-09-17T10:29:13.022Z,26.40
2018-09-17T10:34:07.929Z,26.30
2018-09-17T10:39:02.576Z,25.80
2018-09-17T10:43:57.143Z,25.50
2018-09-17T10:48:51.617Z,25.50
2018-09-17T10:53:46.128Z,25.60
2018-09-17T10:58:40.581Z,25.60
2018-09-17T11:03:35.238Z,25.70
2018-09-17T11:08:29.963Z,25.90
2018-09-17T11:13:24.579Z,26.00
2018-09-17T11:18:19.529Z,26.10
2018-09-17T11:23:14.116Z,26.20
2018-09-17T11:28:08.615Z,26.20
2018-09-17T11:33:03.126Z,26.10
2018-09-17T11:37:57.707Z,26.10
2018-09-17T11:42:52.595Z,26.30
2018-09-17T11:47:47.102Z,26.30
2018-09-17T11:52:41.672Z,26.50
2018-09-17T11:57:36.197Z,26.50
2018-09-17T12:02:35.653Z,26.50
2018-09-17T12:07:35.412Z,26.50
2018-09-17T12:12:29.886Z,26.50
2018-09-17T12:17:24.676Z,26.50
2018-09-17T12:22:20.097Z,26.50
2018-09-17T12:27:15.178Z,26.40
2018-09-17T12:32:10.027Z,26.30
2018-09-17T12:37:04.628Z,26.30
2018-09-17T12:41:59.271Z,26.40
2018-09-17T12:46:53.860Z,26.50
2018-09-17T12:51:48.572Z,26.50
2018-09-17T12:56:43.667Z,26.50
2018-09-17T13:01:38.261Z,26.60
2018-09-17T13:06:33.163Z,26.50
2018-09-17T13:11:27.907Z,26.60
2018-09-17T13:16:22.458Z,26.70
2018-09-17T13:21:17.450Z,26.80
2018-09-17T13:26:12.820Z,26.80
2018-09-17T13:31:07.577Z,26.80
2018-09-17T13:36:02.340Z,26.90
2018-09-17T13:40:57.146Z,27.00
2018-09-17T13:45:51.870Z,26.90
2018-09-17T13:50:46.840Z,27.00
2018-09-17T13:55:41.560Z,27.10
2018-09-17T14:00:36.329Z,27.20
2018-09-17T14:05:31.256Z,27.30
2018-09-17T14:10:26.025Z,27.30
2018-09-17T14:15:20.895Z,27.30
2018-09-17T14:20:15.831Z,27.30
2018-09-17T14:25:10.904Z,27.40
2018-09-17T14:30:05.779Z,27.50
2018-09-17T14:35:00.514Z,27.60
2018-09-17T14:39:55.874Z,27.60
2018-09-17T14:44:50.770Z,27.70
2018-09-17T14:49:45.807Z,27.80
2018-09-17T14:54:40.970Z,27.80
2018-09-17T14:59:35.970Z,27.70
2018-09-17T15:04:30.886Z,27.60
2018-09-17T15:09:25.926Z,27.50
2018-09-17T15:14:21.066Z,27.40
2018-09-17T15:19:15.817Z,27.30
2018-09-17T15:24:11.469Z,27.20
2018-09-17T15:29:06.852Z,27.20
2018-09-17T15:34:01.639Z,27.10
2018-09-17T15:38:56.547Z,27.00
2018-09-17T15:43:51.404Z,27.00
2018-09-17T15:48:46.133Z,26.90
2018-09-17T15:53:40.863Z,26.90
2018-09-17T15:58:36.157Z,26.80
2018-09-17T16:03:30.643Z,26.80
2018-09-17T16:08:25.177Z,26.60
2018-09-17T16:13:20.070Z,26.50
2018-09-17T16:18:14.604Z,26.40
2018-09-17T16:23:09.467Z,26.30
2018-09-17T16:28:03.966Z,26.30
2018-09-17T16:32:58.513Z,26.10
2018-09-17T16:37:52.976Z,26.00
2018-09-17T16:42:47.792Z,25.90
2018-09-17T16:47:42.354Z,25.70
2018-09-17T16:52:36.830Z,25.60
2018-09-17T16:57:31.311Z,25.50
2018-09-17T17:02:26.082Z,25.30
2018-09-17T17:07:20.669Z,25.10
2018-09-17T17:12:15.176Z,24.90
2018-09-17T17:17:09.711Z,24.80
2018-09-17T17:22:04.943Z,24.60
2018-09-17T17:26:59.754Z,24.40
2018-09-17T17:31:54.311Z,24.10
2018-09-17T17:36:48.794Z,23.80
2018-09-17T17:41:43.324Z,23.50
2018-09-17T17:46:38.094Z,23.20
2018-09-17T17:51:34.149Z,22.90
2018-09-17T17:56:29.400Z,22.60
2018-09-17T18:01:24.194Z,22.40
2018-09-17T18:06:19.056Z,22.20
2018-09-17T18:11:13.855Z,22.00
2018-09-17T18:16:08.585Z,21.70
2018-09-17T18:21:03.303Z,21.60
2018-09-17T18:25:58.564Z,21.30
2018-09-17T18:30:53.666Z,21.10
2018-09-17T18:35:48.214Z,20.80
2018-09-17T18:40:43.230Z,20.50
2018-09-17T18:45:38.007Z,20.20
2018-09-17T18:50:32.472Z,19.90
2018-09-17T18:55:27.135Z,19.70
2018-09-17T19:00:21.703Z,19.50
2018-09-17T19:05:16.240Z,19.30
2018-09-17T19:10:10.757Z,19.20
2018-09-17T19:15:10.880Z,19.10
2018-09-17T19:20:06.281Z,19.20
2018-09-17T19:25:01.145Z,19.20
2018-09-17T19:29:55.879Z,19.10
2018-09-17T19:34:50.703Z,19.00
2018-09-17T19:39:50.366Z,18.90
2018-09-17T19:44:50.207Z,18.90
2018-09-17T19:49:44.987Z,18.70
2018-09-17T19:54:39.582Z,18.70
2018-09-17T19:59:41.641Z,18.70
2018-09-17T20:04:44.420Z,18.70
2018-09-17T20:09:38.978Z,18.80
2018-09-17T20:14:33.770Z,18.80
2018-09-17T20:19:28.506Z,18.80
2018-09-17T20:24:23.108Z,18.80
2018-09-17T20:29:17.926Z,18.90
2018-09-17T20:34:14.243Z,18.90
2018-09-17T20:39:10.101Z,18.80
2018-09-17T20:44:04.640Z,18.70
2018-09-17T20:48:59.289Z,18.70
2018-09-17T20:53:53.906Z,18.60
2018-09-17T20:58:48.473Z,18.50
2018-09-17T21:03:42.925Z,18.50
2018-09-17T21:08:37.875Z,18.50
2018-09-17T21:13:32.590Z,18.50
2018-09-17T21:18:27.588Z,18.40
2018-09-17T21:23:22.080Z,18.40
2018-09-17T21:28:16.572Z,18.30
2018-09-17T21:33:11.061Z,18.30
2018-09-17T21:38:05.572Z,18.30
2018-09-17T21:43:01.381Z,18.20
2018-09-17T21:47:56.872Z,18.20
2018-09-17T21:52:51.532Z,18.20
2018-09-17T21:57:46.062Z,18.10
2018-09-17T22:02:40.554Z,18.10
2018-09-17T22:07:35.077Z,18.10
2018-09-17T22:12:30.086Z,17.90
2018-09-17T22:17:24.580Z,17.90
2018-09-17T22:22:19.096Z,17.90
2018-09-17T22:27:13.758Z,17.90
2018-09-17T22:32:09.287Z,18.00
2018-09-17T22:37:04.184Z,18.00
2018-09-17T22:41:59.361Z,18.00
2018-09-17T22:46:54.334Z,18.10
2018-09-17T22:51:48.904Z,18.10
2018-09-17T22:56:43.390Z,18.10
2018-09-17T23:01:38.277Z,18.10
2018-09-17T23:06:32.716Z,18.10
2018-09-17T23:11:27.210Z,18.00
2018-09-17T23:16:21.700Z,18.00
2018-09-17T23:21:16.157Z,18.00
2018-09-17T23:26:10.661Z,17.90
2018-09-17T23:31:05.201Z,17.90
2018-09-17T23:35:59.792Z,17.80
2018-09-17T23:40:54.525Z,17.70
2018-09-17T23:45:49.229Z,17.60
2018-09-17T23:50:43.723Z,17.50
2018-09-17T23:55:38.245Z,17.50
